x

Cape Suckling - 35 Nm Se Of Kayak Is, Ak (46082) Wave Buoy

2:50pm - Wed 1st Jul 2015 All times are AKDT. -8 hours from GMT.

  • Sig Wave height 3.9ft
  • Peak Period 5s
  • Average Period 4s
  • Wind
    11mph, 13mph gusts
  • Air Temp 54°f
  • Sea Pressure 1019.3mb
  • Cape Suckling - 35 Nm Se Of Kayak Is, Ak
  • Cape Suckling - 35 Nm Se Of Kayak Is, Ak

More Historic Weather Station data

Upgrade to MSW Pro to gain access to the past 30 days of data for over 8000 Wavebouys and Weather Stations around the globe.

Join Pro

Comparision Forecast

View Surf forecast
   
Wed 07/01 2:50pm 4ft 5s 4s 11 13 mph 1019.3mb 54f
1:50pm 4ft 6s 4s 11 13 mph 1020.1mb 54f
12:50pm 3.5ft 5s 4s 16 18 mph 1020.5mb 55f
11:50am 3.5ft 6s 4s 11 16 mph 1021.1mb 53f
10:50am 3.5ft 6s 4s 13 16 mph 1021.5mb 55f
9:50am 3.5ft 4s 4s 9 13 mph 1022mb 55f
8:50am 3.5ft 4s 4s 7 9 mph 1022.5mb 53f
7:50am 3.5ft 4s 4s 4 7 mph 1022.9mb 54f
6:50am 3.5ft 4s 4s 4 7 mph 1023.4mb 54f
5:50am 3.5ft 7s 4s 11 13 mph 1023.6mb 54f
4:50am 3.5ft 14s 5s 11 13 mph 1023.9mb 54f
3:50am 3.5ft 14s 5s 7
mph
1024.1mb 55f
2:50am 3.5ft 6s 5s 4 7 mph 1024.4mb 55f
1:50am 3.5ft 6s 5s 7
mph
1024.4mb 55f
12:50am 3.5ft 6s 5s 4 7 mph 1024.5mb 54f
Tue 06/30 11:50pm 3.5ft 7s 4s 7 9 mph 1024.6mb 54f
10:50pm 3.5ft 6s 4s 9 11 mph 1024.4mb 54f
9:50pm 3.5ft 6s 4s 7 9 mph 1024mb 54f
8:50pm 3.5ft 6s 4s 7 11 mph 1024mb 54f
7:50pm 3.5ft 6s 4s 7 11 mph 1023.9mb 54f
6:50pm 4ft 6s 4s 11 16 mph 1023.8mb 55f
5:50pm 3.5ft 6s 4s 13 16 mph 1023.7mb 54f
4:50pm 3.5ft 6s 4s 11 13 mph 1023.7mb 55f
3:50pm 3.5ft 5s 4s 11 13 mph 1023.7mb 54f
2:50pm 3.5ft 6s 4s 4 7 mph 1023.6mb 53f
1:50pm 3.5ft 6s 4s 11 13 mph 1023.3mb 54f
12:50pm 3.5ft 6s 4s 9
mph
1023.1mb 54f
11:50am 3ft 6s 4s 7 9 mph 1023mb 54f
10:50am 3.5ft 6s 4s 13 16 mph 1022.9mb 53f
9:50am 3ft 6s 4s 11
mph
1022.7mb 55f
8:50am 3ft 6s 4s 9 11 mph 1022.3mb 55f
7:50am 3ft 4s 4s 11 13 mph 1022.1mb 55f
6:50am 3.5ft 5s 4s 9 11 mph 1021.9mb 55f
5:50am 3.5ft 4s 4s 11 13 mph 1021.5mb 55f
4:50am 3.5ft 5s 4s 11 13 mph 1021.2mb 55f
3:50am 3.5ft 5s 4s 13 16 mph 1020.7mb 55f
2:50am 3.5ft 5s 4s 11 13 mph 1020.4mb 54f
1:50am 4ft 6s 4s 16 18 mph 1020mb 53f
12:50am 3.5ft 4s 4s 18 22 mph 1019.2mb 55f
Mon 06/29 11:50pm 3.5ft 6s 4s 18 20 mph 1019mb 56f
10:50pm 3ft 6s 4s 20 22 mph 1018.9mb 55f
9:50pm 3ft 6s 4s 16 18 mph 1018.7mb 56f
8:50pm 3ft 6s 4s 16 18 mph 1018.6mb 56f
7:50pm 3ft 6s 4s 13 16 mph 1018.5mb 56f
6:50pm 3ft 6s 4s 11 13 mph 1018.2mb 56f
5:50pm 2.5ft 6s 4s 11 13 mph 1018.3mb 56f
4:50pm 3ft 6s 5s 11 13 mph 1018mb 56f
3:50pm 3ft 6s 5s 11
mph
1017.7mb 56f
2:50pm 3ft 6s 5s 9 11 mph 1017.3mb 56f
1:50pm 3ft 6s 5s 9 11 mph 1016.8mb 55f
12:50pm 3.5ft 6s 5s 9 11 mph 1016.2mb 55f
11:50am 3ft 6s 5s 7 9 mph 1015.9mb 55f
10:50am 3.5ft 6s 5s 4 7 mph 1015.5mb 56f
9:50am 3.5ft 7s 5s 4
mph
1015.4mb 55f
8:50am 3.5ft 7s 5s 4
mph
1015.2mb 55f
7:50am 3.5ft 7s 5s 4
mph
1015.1mb 55f
6:50am 4ft 7s 5s 4
mph
1015.2mb 55f
5:50am 4.5ft 7s 5s 4
mph
1015.4mb 54f
4:50am 4ft 7s 5s 2 4 mph 1015.4mb 54f
3:50am 4ft 7s 5s 7
mph
1015.4mb 54f
2:50am 4ft 7s 5s 7
mph
1015.9mb 54f
1:50am 4ft 7s 5s 7 9 mph 1016.3mb 55f
12:50am 4.5ft 7s 5s 4
mph
1016.4mb 55f
Sun 06/28 11:50pm 4.5ft 6s 5s 7
mph
1016.8mb 55f
10:50pm 4.5ft 6s 5s 9 11 mph 1017.1mb 56f
9:50pm 4.5ft 7s 5s 11 13 mph 1017.3mb 56f
8:50pm 4.5ft 7s 5s 11 13 mph 1017.4mb 56f
7:50pm 4.5ft 7s 5s 11 13 mph 1017.6mb 56f
6:50pm 4.5ft 5s 5s 13 16 mph 1018mb 55f
5:50pm 5ft 7s 5s 13 16 mph 1018.3mb 55f
4:50pm 5ft 6s 5s 16 18 mph 1018.5mb 55f
3:50pm 5ft 7s 5s 16 18 mph 1018.7mb 55f
2:50pm 5ft 7s 5s 16 20 mph 1018.7mb 55f
1:50pm 6ft 7s 5s 13 18 mph 1018.5mb 54f
12:50pm 5ft 6s 5s 16 18 mph 1018.3mb 55f
11:50am 5ft 7s 5s 18 20 mph 1018.1mb 55f
10:50am 5.5ft 6s 5s 18 22 mph 1017.9mb 55f
9:50am 5.5ft 7s 5s 18 20 mph 1017.6mb 54f
8:50am 5.5ft 5s 5s 16 18 mph 1017.5mb 55f
7:50am 6ft 6s 5s 13 16 mph 1017.2mb 53f
6:50am 6ft 5s 5s 13 16 mph 1016.9mb 54f
5:50am 6.5ft 6s 5s 22 27 mph 1016.5mb 54f
4:50am 7ft 6s 5s 25 29 mph 1016.4mb 54f
3:50am 7ft 6s 5s 25 29 mph 1016.4mb 54f
2:50am 7ft 6s 5s 25 29 mph 1016.5mb 54f
1:50am 6ft 6s 5s 22 27 mph 1016.4mb 56f
12:50am 7ft 6s 5s 18 22 mph 1016.5mb 56f
Sat 06/27 11:50pm 7.5ft 6s 5s 20 25 mph 1016.3mb 56f